In Rescue
 
Open Full Screen Window  High Contrast Mode
Wind Gusting 00 knots
06
September 21, 2019 8:58 AM EDT
Present Weather: Mist
Weather Information
Wind Direction
  130 °
Wind Speed
  06 kt (7 mph)
Wind Gust
  00 kt (0 mph)
Altimeter
30.04 in
Visibility
5 SM
Temperature
18° C
64° F
Dewpoint
18° C
64° F
Humidity
100%
1hr Rain Fall
00.00 in.
24hr Rain Fall
00.00 in.
Sky Condition
Broken @ 5,500 ft
Broken @ 2,900 ft
Scattered @ 2,300 ft
MVFR

METAR KISQ 211258Z AUTO 13006KT 5SM BR SCT023 BKN029 BKN055 18/18 A3004 RMK AO2 T01840180

FAA Disclaimer: The data displayed is for advisory purposes only and is not to be used for flight planning or operations.